sensor_id;sensor_type;location;lat;lon;timestamp;temperature;humidity
6930;DHT22;3504;52.616;13.238;2023-02-28T00:01:42;0.47;74.93
6930;DHT22;3504;52.616;13.238;2023-02-28T00:06:42;0.42;75.01
6930;DHT22;3504;52.616;13.238;2023-02-28T00:11:43;0.37;75.02
6930;DHT22;3504;52.616;13.238;2023-02-28T00:16:43;0.31;74.85
6930;DHT22;3504;52.616;13.238;2023-02-28T00:21:44;0.23;75.09
6930;DHT22;3504;52.616;13.238;2023-02-28T00:26:44;0.18;74.99
6930;DHT22;3504;52.616;13.238;2023-02-28T00:31:45;0.10;75.18
6930;DHT22;3504;52.616;13.238;2023-02-28T00:36:45;0.09;74.94
6930;DHT22;3504;52.616;13.238;2023-02-28T00:41:49;-0.04;75.48
6930;DHT22;3504;52.616;13.238;2023-02-28T00:46:49;-0.07;75.36
6930;DHT22;3504;52.616;13.238;2023-02-28T00:51:50;-0.09;75.06
6930;DHT22;3504;52.616;13.238;2023-02-28T00:56:52;-0.11;75.08
6930;DHT22;3504;52.616;13.238;2023-02-28T01:01:53;-0.20;75.19
6930;DHT22;3504;52.616;13.238;2023-02-28T01:06:53;-0.23;75.26
6930;DHT22;3504;52.616;13.238;2023-02-28T01:11:54;-0.34;75.65
6930;DHT22;3504;52.616;13.238;2023-02-28T01:16:54;-0.42;76.47
6930;DHT22;3504;52.616;13.238;2023-02-28T01:21:55;-0.48;76.04
6930;DHT22;3504;52.616;13.238;2023-02-28T01:26:55;-0.48;76.02
6930;DHT22;3504;52.616;13.238;2023-02-28T01:31:56;-0.51;75.74
6930;DHT22;3504;52.616;13.238;2023-02-28T01:36:57;-0.55;75.75
6930;DHT22;3504;52.616;13.238;2023-02-28T01:41:59;-0.58;75.79
6930;DHT22;3504;52.616;13.238;2023-02-28T01:46:59;-0.66;75.96
6930;DHT22;3504;52.616;13.238;2023-02-28T01:52:00;-0.73;76.00
6930;DHT22;3504;52.616;13.238;2023-02-28T01:57:05;-0.76;76.30
6930;DHT22;3504;52.616;13.238;2023-02-28T02:02:07;-0.79;76.08
6930;DHT22;3504;52.616;13.238;2023-02-28T02:07:08;-0.82;76.06
6930;DHT22;3504;52.616;13.238;2023-02-28T02:12:32;-0.85;75.99
6930;DHT22;3504;52.616;13.238;2023-02-28T02:17:52;-0.90;75.80
6930;DHT22;3504;52.616;13.238;2023-02-28T02:23:33;-0.93;75.89
6930;DHT22;3504;52.616;13.238;2023-02-28T02:39:58;-1.13;76.29
6930;DHT22;3504;52.616;13.238;2023-02-28T02:45:07;-1.17;76.33
6930;DHT22;3504;52.616;13.238;2023-02-28T02:50:17;-1.20;76.86
6930;DHT22;3504;52.616;13.238;2023-02-28T02:55:20;-1.29;76.66
6930;DHT22;3504;52.616;13.238;2023-02-28T03:00:28;-1.34;76.59
6930;DHT22;3504;52.616;13.238;2023-02-28T03:05:39;-1.41;76.82
6930;DHT22;3504;52.616;13.238;2023-02-28T03:10:45;-1.40;76.60
6930;DHT22;3504;52.616;13.238;2023-02-28T03:22:07;-1.54;76.95
6930;DHT22;3504;52.616;13.238;2023-02-28T03:27:26;-1.55;76.67
6930;DHT22;3504;52.616;13.238;2023-02-28T03:32:38;-1.55;76.67
6930;DHT22;3504;52.616;13.238;2023-02-28T03:37:43;-1.62;76.39
6930;DHT22;3504;52.616;13.238;2023-02-28T03:42:48;-1.70;76.77
6930;DHT22;3504;52.616;13.238;2023-02-28T03:47:57;-1.77;76.72
6930;DHT22;3504;52.616;13.238;2023-02-28T03:53:32;-1.82;76.85
6930;DHT22;3504;52.616;13.238;2023-02-28T03:59:02;-1.85;76.78
6930;DHT22;3504;52.616;13.238;2023-02-28T04:04:05;-1.91;76.67
6930;DHT22;3504;52.616;13.238;2023-02-28T04:09:07;-1.96;76.87
6930;DHT22;3504;52.616;13.238;2023-02-28T04:14:09;-1.96;76.77
6930;DHT22;3504;52.616;13.238;2023-02-28T04:19:12;-2.02;76.76
6930;DHT22;3504;52.616;13.238;2023-02-28T04:24:19;-2.05;76.71
6930;DHT22;3504;52.616;13.238;2023-02-28T04:29:38;-2.07;76.73
6930;DHT22;3504;52.616;13.238;2023-02-28T04:34:38;-2.09;76.57
6930;DHT22;3504;52.616;13.238;2023-02-28T04:39:40;-2.12;76.59
6930;DHT22;3504;52.616;13.238;2023-02-28T04:44:40;-2.13;76.39
6930;DHT22;3504;52.616;13.238;2023-02-28T04:49:41;-2.16;76.58
6930;DHT22;3504;52.616;13.238;2023-02-28T04:54:41;-2.19;76.49
6930;DHT22;3504;52.616;13.238;2023-02-28T04:59:42;-2.22;76.34
6930;DHT22;3504;52.616;13.238;2023-02-28T05:04:42;-2.27;76.33
6930;DHT22;3504;52.616;13.238;2023-02-28T05:09:43;-2.34;76.36
6930;DHT22;3504;52.616;13.238;2023-02-28T05:14:43;-2.39;76.49
6930;DHT22;3504;52.616;13.238;2023-02-28T05:19:44;-2.40;76.45
6930;DHT22;3504;52.616;13.238;2023-02-28T05:24:44;-2.44;76.51
6930;DHT22;3504;52.616;13.238;2023-02-28T05:29:45;-2.49;76.60
6930;DHT22;3504;52.616;13.238;2023-02-28T05:34:46;-2.50;76.49
6930;DHT22;3504;52.616;13.238;2023-02-28T05:39:46;-2.53;76.35
6930;DHT22;3504;52.616;13.238;2023-02-28T05:44:47;-2.54;76.34
6930;DHT22;3504;52.616;13.238;2023-02-28T05:49:47;-2.63;76.37
6930;DHT22;3504;52.616;13.238;2023-02-28T05:54:48;-2.64;76.53
6930;DHT22;3504;52.616;13.238;2023-02-28T05:59:48;-2.65;76.51
6930;DHT22;3504;52.616;13.238;2023-02-28T06:04:49;-2.68;76.53
6930;DHT22;3504;52.616;13.238;2023-02-28T06:09:49;-2.70;76.59
6930;DHT22;3504;52.616;13.238;2023-02-28T06:14:50;-2.70;76.57
6930;DHT22;3504;52.616;13.238;2023-02-28T06:19:50;-2.68;76.49
6930;DHT22;3504;52.616;13.238;2023-02-28T06:24:51;-2.70;76.59
6930;DHT22;3504;52.616;13.238;2023-02-28T06:29:55;-2.67;76.58
6930;DHT22;3504;52.616;13.238;2023-02-28T06:34:56;-2.67;76.65
6930;DHT22;3504;52.616;13.238;2023-02-28T06:39:58;-2.61;76.64
6930;DHT22;3504;52.616;13.238;2023-02-28T06:44:58;-2.60;76.67
6930;DHT22;3504;52.616;13.238;2023-02-28T06:49:59;-2.57;76.84
6930;DHT22;3504;52.616;13.238;2023-02-28T06:55:02;-2.52;77.09
6930;DHT22;3504;52.616;13.238;2023-02-28T07:00:08;-2.44;77.33
6930;DHT22;3504;52.616;13.238;2023-02-28T07:05:08;-2.36;77.41
6930;DHT22;3504;52.616;13.238;2023-02-28T07:10:11;-2.24;77.46
6930;DHT22;3504;52.616;13.238;2023-02-28T07:15:11;-2.12;77.32
6930;DHT22;3504;52.616;13.238;2023-02-28T07:20:12;-2.05;77.68
6930;DHT22;3504;52.616;13.238;2023-02-28T07:25:13;-1.93;77.38
6930;DHT22;3504;52.616;13.238;2023-02-28T07:30:14;-1.78;77.35
6930;DHT22;3504;52.616;13.238;2023-02-28T07:35:14;-1.67;77.63
6930;DHT22;3504;52.616;13.238;2023-02-28T07:40:16;-1.50;77.88
6930;DHT22;3504;52.616;13.238;2023-02-28T07:45:18;-1.34;78.41
6930;DHT22;3504;52.616;13.238;2023-02-28T07:50:19;-1.16;78.33
6930;DHT22;3504;52.616;13.238;2023-02-28T07:55:20;-0.99;78.21
6930;DHT22;3504;52.616;13.238;2023-02-28T08:00:21;-0.82;77.77
6930;DHT22;3504;52.616;13.238;2023-02-28T08:05:21;-0.59;77.95
6930;DHT22;3504;52.616;13.238;2023-02-28T08:10:23;-0.35;77.76
6930;DHT22;3504;52.616;13.238;2023-02-28T08:15:24;-0.11;77.68
6930;DHT22;3504;52.616;13.238;2023-02-28T08:20:26;0.17;77.28
6930;DHT22;3504;52.616;13.238;2023-02-28T08:25:27;0.49;76.74
6930;DHT22;3504;52.616;13.238;2023-02-28T08:30:27;0.72;75.37
6930;DHT22;3504;52.616;13.238;2023-02-28T08:35:27;0.97;73.19
6930;DHT22;3504;52.616;13.238;2023-02-28T08:40:28;1.29;73.14
6930;DHT22;3504;52.616;13.238;2023-02-28T08:45:28;1.60;72.83
6930;DHT22;3504;52.616;13.238;2023-02-28T08:50:29;1.78;68.77
6930;DHT22;3504;52.616;13.238;2023-02-28T08:55:29;1.98;68.82
6930;DHT22;3504;52.616;13.238;2023-02-28T09:00:30;2.25;67.33
6930;DHT22;3504;52.616;13.238;2023-02-28T09:05:30;2.83;66.37
6930;DHT22;3504;52.616;13.238;2023-02-28T09:10:31;3.19;57.13
6930;DHT22;3504;52.616;13.238;2023-02-28T09:15:31;3.59;56.91
6930;DHT22;3504;52.616;13.238;2023-02-28T09:20:32;3.90;56.05
6930;DHT22;3504;52.616;13.238;2023-02-28T09:25:33;4.20;55.24
6930;DHT22;3504;52.616;13.238;2023-02-28T09:30:34;4.49;53.82
6930;DHT22;3504;52.616;13.238;2023-02-28T09:35:34;4.72;53.89
6930;DHT22;3504;52.616;13.238;2023-02-28T09:40:50;4.93;50.51
6930;DHT22;3504;52.616;13.238;2023-02-28T09:46:08;4.86;48.58
6930;DHT22;3504;52.616;13.238;2023-02-28T09:57:06;5.00;47.43
6930;DHT22;3504;52.616;13.238;2023-02-28T10:08:00;5.62;48.50
6930;DHT22;3504;52.616;13.238;2023-02-28T10:13:06;5.83;47.11
6930;DHT22;3504;52.616;13.238;2023-02-28T10:18:16;6.02;46.94
6930;DHT22;3504;52.616;13.238;2023-02-28T10:23:34;6.19;47.28
6930;DHT22;3504;52.616;13.238;2023-02-28T10:28:35;6.40;45.94
6930;DHT22;3504;52.616;13.238;2023-02-28T10:33:36;6.48;45.46
6930;DHT22;3504;52.616;13.238;2023-02-28T10:38:39;6.55;42.86
6930;DHT22;3504;52.616;13.238;2023-02-28T10:43:42;6.65;41.79
6930;DHT22;3504;52.616;13.238;2023-02-28T10:49:04;6.68;42.45
6930;DHT22;3504;52.616;13.238;2023-02-28T10:54:06;6.77;42.32
6930;DHT22;3504;52.616;13.238;2023-02-28T11:09:39;7.12;38.97
6930;DHT22;3504;52.616;13.238;2023-02-28T11:14:50;7.15;42.68
6930;DHT22;3504;52.616;13.238;2023-02-28T11:19:56;7.37;40.97
6930;DHT22;3504;52.616;13.238;2023-02-28T11:25:01;7.24;40.64
6930;DHT22;3504;52.616;13.238;2023-02-28T11:30:02;7.47;41.55
6930;DHT22;3504;52.616;13.238;2023-02-28T11:35:19;7.54;41.25
6930;DHT22;3504;52.616;13.238;2023-02-28T11:40:39;7.48;40.59
6930;DHT22;3504;52.616;13.238;2023-02-28T11:56:37;7.43;39.40
6930;DHT22;3504;52.616;13.238;2023-02-28T12:07:44;7.29;39.79
6930;DHT22;3504;52.616;13.238;2023-02-28T12:29:16;7.58;41.94
6930;DHT22;3504;52.616;13.238;2023-02-28T12:34:27;7.57;40.32
6930;DHT22;3504;52.616;13.238;2023-02-28T12:39:33;7.50;40.36
6930;DHT22;3504;52.616;13.238;2023-02-28T12:44:42;7.44;40.81
6930;DHT22;3504;52.616;13.238;2023-02-28T12:50:03;7.40;39.45
6930;DHT22;3504;52.616;13.238;2023-02-28T12:55:20;7.15;39.39
6930;DHT22;3504;52.616;13.238;2023-02-28T13:00:28;7.18;39.21
6930;DHT22;3504;52.616;13.238;2023-02-28T13:06:04;7.16;40.31
6930;DHT22;3504;52.616;13.238;2023-02-28T13:11:06;7.13;41.37
6930;DHT22;3504;52.616;13.238;2023-02-28T13:16:10;7.11;40.47
6930;DHT22;3504;52.616;13.238;2023-02-28T13:21:29;7.09;40.45
6930;DHT22;3504;52.616;13.238;2023-02-28T13:31:31;6.88;40.51
6930;DHT22;3504;52.616;13.238;2023-02-28T13:36:34;6.92;42.51
6930;DHT22;3504;52.616;13.238;2023-02-28T13:52:20;7.03;41.81
6930;DHT22;3504;52.616;13.238;2023-02-28T13:57:44;7.02;41.86
6930;DHT22;3504;52.616;13.238;2023-02-28T14:08:33;6.88;41.35
6930;DHT22;3504;52.616;13.238;2023-02-28T14:13:45;6.87;42.68
6930;DHT22;3504;52.616;13.238;2023-02-28T14:18:56;6.75;42.58
6930;DHT22;3504;52.616;13.238;2023-02-28T14:24:37;6.84;41.68
6930;DHT22;3504;52.616;13.238;2023-02-28T14:40:58;6.60;40.25
6930;DHT22;3504;52.616;13.238;2023-02-28T14:46:02;6.67;42.26
6930;DHT22;3504;52.616;13.238;2023-02-28T14:51:04;6.75;41.44
6930;DHT22;3504;52.616;13.238;2023-02-28T14:56:05;6.80;42.81
6930;DHT22;3504;52.616;13.238;2023-02-28T15:01:10;6.65;42.22
6930;DHT22;3504;52.616;13.238;2023-02-28T15:06:15;6.54;41.36
6930;DHT22;3504;52.616;13.238;2023-02-28T15:11:21;6.51;43.09
6930;DHT22;3504;52.616;13.238;2023-02-28T15:16:35;6.38;41.35
6930;DHT22;3504;52.616;13.238;2023-02-28T15:21:41;6.34;43.35
6930;DHT22;3504;52.616;13.238;2023-02-28T15:26:46;6.30;43.69
6930;DHT22;3504;52.616;13.238;2023-02-28T15:36:51;6.13;43.50
6930;DHT22;3504;52.616;13.238;2023-02-28T15:41:51;6.13;44.27
6930;DHT22;3504;52.616;13.238;2023-02-28T15:47:05;6.03;43.69
6930;DHT22;3504;52.616;13.238;2023-02-28T15:52:16;5.99;44.51
6930;DHT22;3504;52.616;13.238;2023-02-28T15:57:25;5.78;44.50
6930;DHT22;3504;52.616;13.238;2023-02-28T16:02:36;5.75;44.63
6930;DHT22;3504;52.616;13.238;2023-02-28T16:07:40;5.67;45.79
6930;DHT22;3504;52.616;13.238;2023-02-28T16:12:41;5.58;46.09
6930;DHT22;3504;52.616;13.238;2023-02-28T16:17:42;5.51;46.19
6930;DHT22;3504;52.616;13.238;2023-02-28T16:22:43;5.41;46.82
6930;DHT22;3504;52.616;13.238;2023-02-28T16:27:46;5.23;47.58
6930;DHT22;3504;52.616;13.238;2023-02-28T16:32:50;5.13;48.11
6930;DHT22;3504;52.616;13.238;2023-02-28T16:37:51;4.96;49.29
6930;DHT22;3504;52.616;13.238;2023-02-28T16:42:59;4.82;50.00
6930;DHT22;3504;52.616;13.238;2023-02-28T16:48:00;4.63;50.70
6930;DHT22;3504;52.616;13.238;2023-02-28T16:53:00;4.45;51.22
6930;DHT22;3504;52.616;13.238;2023-02-28T16:58:02;4.29;51.37
6930;DHT22;3504;52.616;13.238;2023-02-28T17:03:02;4.11;52.43
6930;DHT22;3504;52.616;13.238;2023-02-28T17:08:03;4.00;52.96
6930;DHT22;3504;52.616;13.238;2023-02-28T17:13:03;3.86;54.64
6930;DHT22;3504;52.616;13.238;2023-02-28T17:18:05;3.66;55.72
6930;DHT22;3504;52.616;13.238;2023-02-28T17:23:06;3.43;55.72
6930;DHT22;3504;52.616;13.238;2023-02-28T17:28:08;3.32;56.43
6930;DHT22;3504;52.616;13.238;2023-02-28T17:33:09;3.16;56.33
6930;DHT22;3504;52.616;13.238;2023-02-28T17:38:16;3.02;56.87
6930;DHT22;3504;52.616;13.238;2023-02-28T17:43:17;2.88;57.57
6930;DHT22;3504;52.616;13.238;2023-02-28T17:48:18;2.73;57.85
6930;DHT22;3504;52.616;13.238;2023-02-28T17:53:18;2.64;58.50
6930;DHT22;3504;52.616;13.238;2023-02-28T17:58:19;2.52;59.19
6930;DHT22;3504;52.616;13.238;2023-02-28T18:03:20;2.40;59.24
6930;DHT22;3504;52.616;13.238;2023-02-28T18:08:20;2.26;59.72
6930;DHT22;3504;52.616;13.238;2023-02-28T18:13:21;2.15;59.95
6930;DHT22;3504;52.616;13.238;2023-02-28T18:18:22;2.03;59.97
6930;DHT22;3504;52.616;13.238;2023-02-28T18:23:22;1.99;60.52
6930;DHT22;3504;52.616;13.238;2023-02-28T18:28:23;1.84;60.38
6930;DHT22;3504;52.616;13.238;2023-02-28T18:33:23;1.77;60.25
6930;DHT22;3504;52.616;13.238;2023-02-28T18:38:24;1.58;60.64
6930;DHT22;3504;52.616;13.238;2023-02-28T18:43:29;1.34;61.01
6930;DHT22;3504;52.616;13.238;2023-02-28T18:48:30;1.15;61.73
6930;DHT22;3504;52.616;13.238;2023-02-28T18:53:30;0.96;62.58
6930;DHT22;3504;52.616;13.238;2023-02-28T18:58:32;0.89;62.70
6930;DHT22;3504;52.616;13.238;2023-02-28T19:03:35;0.73;63.10
6930;DHT22;3504;52.616;13.238;2023-02-28T19:08:36;0.61;63.74
6930;DHT22;3504;52.616;13.238;2023-02-28T19:13:36;0.62;64.12
6930;DHT22;3504;52.616;13.238;2023-02-28T19:18:37;0.66;64.41
6930;DHT22;3504;52.616;13.238;2023-02-28T19:23:39;0.64;64.31
6930;DHT22;3504;52.616;13.238;2023-02-28T19:28:40;0.62;64.62
6930;DHT22;3504;52.616;13.238;2023-02-28T19:33:41;0.58;64.91
6930;DHT22;3504;52.616;13.238;2023-02-28T19:38:42;0.54;65.28
6930;DHT22;3504;52.616;13.238;2023-02-28T19:43:44;0.51;64.98
6930;DHT22;3504;52.616;13.238;2023-02-28T19:48:45;0.52;64.92
6930;DHT22;3504;52.616;13.238;2023-02-28T19:53:45;0.47;65.59
6930;DHT22;3504;52.616;13.238;2023-02-28T19:58:46;0.41;65.56
6930;DHT22;3504;52.616;13.238;2023-02-28T20:03:49;0.37;66.06
6930;DHT22;3504;52.616;13.238;2023-02-28T20:08:52;0.28;66.20
6930;DHT22;3504;52.616;13.238;2023-02-28T20:13:53;0.21;66.40
6930;DHT22;3504;52.616;13.238;2023-02-28T20:18:54;0.18;66.45
6930;DHT22;3504;52.616;13.238;2023-02-28T20:23:54;0.18;66.53
6930;DHT22;3504;52.616;13.238;2023-02-28T20:28:55;0.17;66.34
6930;DHT22;3504;52.616;13.238;2023-02-28T20:33:55;0.14;66.51
6930;DHT22;3504;52.616;13.238;2023-02-28T20:38:56;0.14;66.46
6930;DHT22;3504;52.616;13.238;2023-02-28T20:43:58;0.09;67.01
6930;DHT22;3504;52.616;13.238;2023-02-28T20:48:58;0.01;67.27
6930;DHT22;3504;52.616;13.238;2023-02-28T20:53:59;-0.04;67.07
6930;DHT22;3504;52.616;13.238;2023-02-28T20:58:59;-0.06;67.53
6930;DHT22;3504;52.616;13.238;2023-02-28T21:04:03;-0.13;67.97
6930;DHT22;3504;52.616;13.238;2023-02-28T21:09:09;-0.18;67.93
6930;DHT22;3504;52.616;13.238;2023-02-28T21:14:14;-0.21;68.16
6930;DHT22;3504;52.616;13.238;2023-02-28T21:19:14;-0.25;67.88
6930;DHT22;3504;52.616;13.238;2023-02-28T21:24:17;-0.40;69.12
6930;DHT22;3504;52.616;13.238;2023-02-28T21:29:18;-0.45;68.77
6930;DHT22;3504;52.616;13.238;2023-02-28T21:34:19;-0.48;68.93
6930;DHT22;3504;52.616;13.238;2023-02-28T21:39:24;-0.54;69.14
6930;DHT22;3504;52.616;13.238;2023-02-28T21:44:25;-0.54;69.04
6930;DHT22;3504;52.616;13.238;2023-02-28T21:49:27;-0.56;68.74
6930;DHT22;3504;52.616;13.238;2023-02-28T21:54:28;-0.62;69.53
6930;DHT22;3504;52.616;13.238;2023-02-28T21:59:28;-0.76;69.67
6930;DHT22;3504;52.616;13.238;2023-02-28T22:04:29;-0.90;70.22
6930;DHT22;3504;52.616;13.238;2023-02-28T22:09:30;-0.93;70.33
6930;DHT22;3504;52.616;13.238;2023-02-28T22:14:30;-0.96;69.94
6930;DHT22;3504;52.616;13.238;2023-02-28T22:19:31;-0.97;70.33
6930;DHT22;3504;52.616;13.238;2023-02-28T22:24:31;-0.95;69.64
6930;DHT22;3504;52.616;13.238;2023-02-28T22:29:32;-0.96;69.69
6930;DHT22;3504;52.616;13.238;2023-02-28T22:34:32;-0.97;69.64
6930;DHT22;3504;52.616;13.238;2023-02-28T22:39:33;-1.00;69.56
6930;DHT22;3504;52.616;13.238;2023-02-28T22:44:34;-1.04;69.59
6930;DHT22;3504;52.616;13.238;2023-02-28T22:49:34;-1.09;70.04
6930;DHT22;3504;52.616;13.238;2023-02-28T22:54:35;-1.16;69.96
6930;DHT22;3504;52.616;13.238;2023-02-28T22:59:35;-1.17;70.55
6930;DHT22;3504;52.616;13.238;2023-02-28T23:04:36;-1.26;70.42
6930;DHT22;3504;52.616;13.238;2023-02-28T23:09:36;-1.31;70.63
6930;DHT22;3504;52.616;13.238;2023-02-28T23:14:37;-1.38;71.00
6930;DHT22;3504;52.616;13.238;2023-02-28T23:19:37;-1.40;71.09
6930;DHT22;3504;52.616;13.238;2023-02-28T23:24:38;-1.40;70.68
6930;DHT22;3504;52.616;13.238;2023-02-28T23:29:38;-1.47;71.29
6930;DHT22;3504;52.616;13.238;2023-02-28T23:34:39;-1.50;71.20
6930;DHT22;3504;52.616;13.238;2023-02-28T23:39:40;-1.51;71.09
6930;DHT22;3504;52.616;13.238;2023-02-28T23:44:40;-1.54;71.29
6930;DHT22;3504;52.616;13.238;2023-02-28T23:49:41;-1.61;71.20
6930;DHT22;3504;52.616;13.238;2023-02-28T23:54:41;-1.61;71.40
6930;DHT22;3504;52.616;13.238;2023-02-28T23:59:42;-1.64;71.39
